<?xml version="1.0" encoding="UTF-8" standalone="no" ?>
<gpx xmlns="http://www.topografix.com/GPX/1/1" xmlns:xsi="http://www.w3.org/2001/XMLSchema-instance" xsi:schemaLocation="http://www.topografix.com/GPX/1/1 http://www.topografix.com/GPX/1/1/gpx.xsd" version="1.1" creator="VisuGPX - https://www.visugpx.com">
  <metadata>
    <name>Slip2Bain 2k11 Summer Tour allé par voie verte</name>
    <desc><![CDATA[AR dordogne - oleron par voie verte puis petites routes]]></desc>
  </metadata>
  <trk>
    <name><![CDATA[ACTIVE LOG141246]]></name>
    <trkseg>
      <trkpt lat="45.82993" lon="-1.11846">
        <ele>11</ele>
        <time>2011-07-14T12:12:46Z</time>
      </trkpt>
      <trkpt lat="45.82993" lon="-1.11848">
        <ele>11</ele>
        <time>2011-07-14T12:14:51Z</time>
      </trkpt>
      <trkpt lat="45.82989" lon="-1.11851">
        <ele>11</ele>
        <time>2011-07-14T12:14:55Z</time>
      </trkpt>
      <trkpt lat="45.8298" lon="-1.11859">
        <ele>11</ele>
        <time>2011-07-14T12:15:00Z</time>
      </trkpt>
      <trkpt lat="45.82979" lon="-1.11877">
        <ele>11</ele>
        <time>2011-07-14T12:15:06Z</time>
      </trkpt>
      <trkpt lat="45.83006" lon="-1.11927">
        <ele>10</ele>
        <time>2011-07-14T12:15:21Z</time>
      </trkpt>
      <trkpt lat="45.83034" lon="-1.11933">
        <ele>10</ele>
        <time>2011-07-14T12:15:29Z</time>
      </trkpt>
      <trkpt lat="45.83061" lon="-1.11979">
        <ele>9</ele>
        <time>2011-07-14T12:15:39Z</time>
      </trkpt>
      <trkpt lat="45.83088" lon="-1.12081">
        <ele>9</ele>
        <time>2011-07-14T12:15:52Z</time>
      </trkpt>
      <trkpt lat="45.83128" lon="-1.1224">
        <ele>7</ele>
        <time>2011-07-14T12:16:10Z</time>
      </trkpt>
      <trkpt lat="45.8319" lon="-1.12387">
        <ele>9</ele>
        <time>2011-07-14T12:16:28Z</time>
      </trkpt>
      <trkpt lat="45.83263" lon="-1.12549">
        <ele>12</ele>
        <time>2011-07-14T12:16:49Z</time>
      </trkpt>
      <trkpt lat="45.83337" lon="-1.12717">
        <ele>10</ele>
        <time>2011-07-14T12:17:10Z</time>
      </trkpt>
      <trkpt lat="45.83407" lon="-1.12873">
        <ele>10</ele>
        <time>2011-07-14T12:17:30Z</time>
      </trkpt>
      <trkpt lat="45.83494" lon="-1.13072">
        <ele>9</ele>
        <time>2011-07-14T12:17:55Z</time>
      </trkpt>
      <trkpt lat="45.83552" lon="-1.13208">
        <ele>10</ele>
        <time>2011-07-14T12:18:12Z</time>
      </trkpt>
      <trkpt lat="45.83614" lon="-1.13338">
        <ele>9</ele>
        <time>2011-07-14T12:18:30Z</time>
      </trkpt>
      <trkpt lat="45.83687" lon="-1.13502">
        <ele>8</ele>
        <time>2011-07-14T12:18:50Z</time>
      </trkpt>
      <trkpt lat="45.83756" lon="-1.13674">
        <ele>8</ele>
        <time>2011-07-14T12:19:10Z</time>
      </trkpt>
      <trkpt lat="45.83763" lon="-1.1372">
        <ele>8</ele>
        <time>2011-07-14T12:19:15Z</time>
      </trkpt>
      <trkpt lat="45.83764" lon="-1.13747">
        <ele>7</ele>
        <time>2011-07-14T12:19:18Z</time>
      </trkpt>
      <trkpt lat="45.83776" lon="-1.13772">
        <ele>7</ele>
        <time>2011-07-14T12:19:22Z</time>
      </trkpt>
      <trkpt lat="45.83789" lon="-1.13814">
        <ele>7</ele>
        <time>2011-07-14T12:19:28Z</time>
      </trkpt>
      <trkpt lat="45.83788" lon="-1.1383">
        <ele>7</ele>
        <time>2011-07-14T12:19:30Z</time>
      </trkpt>
      <trkpt lat="45.83812" lon="-1.13937">
        <ele>6</ele>
        <time>2011-07-14T12:19:43Z</time>
      </trkpt>
      <trkpt lat="45.83838" lon="-1.14076">
        <ele>8</ele>
        <time>2011-07-14T12:19:59Z</time>
      </trkpt>
      <trkpt lat="45.83856" lon="-1.14222">
        <ele>7</ele>
        <time>2011-07-14T12:20:16Z</time>
      </trkpt>
      <trkpt lat="45.83887" lon="-1.14436">
        <ele>6</ele>
        <time>2011-07-14T12:20:40Z</time>
      </trkpt>
      <trkpt lat="45.83942" lon="-1.1462">
        <ele>6</ele>
        <time>2011-07-14T12:21:01Z</time>
      </trkpt>
      <trkpt lat="45.83973" lon="-1.14691">
        <ele>4</ele>
        <time>2011-07-14T12:21:10Z</time>
      </trkpt>
      <trkpt lat="45.84018" lon="-1.14804">
        <ele>5</ele>
        <time>2011-07-14T12:21:24Z</time>
      </trkpt>
      <trkpt lat="45.84078" lon="-1.14849">
        <ele>6</ele>
        <time>2011-07-14T12:21:34Z</time>
      </trkpt>
      <trkpt lat="45.84154" lon="-1.14931">
        <ele>5</ele>
        <time>2011-07-14T12:21:48Z</time>
      </trkpt>
      <trkpt lat="45.84283" lon="-1.15086">
        <ele>5</ele>
        <time>2011-07-14T12:22:12Z</time>
      </trkpt>
      <trkpt lat="45.84374" lon="-1.15216">
        <ele>3</ele>
        <time>2011-07-14T12:22:29Z</time>
      </trkpt>
      <trkpt lat="45.84478" lon="-1.154">
        <ele>2</ele>
        <time>2011-07-14T12:22:53Z</time>
      </trkpt>
      <trkpt lat="45.84542" lon="-1.15563">
        <ele>3</ele>
        <time>2011-07-14T12:23:13Z</time>
      </trkpt>
      <trkpt lat="45.84586" lon="-1.15738">
        <ele>3</ele>
        <time>2011-07-14T12:23:33Z</time>
      </trkpt>
      <trkpt lat="45.84604" lon="-1.15869">
        <ele>2</ele>
        <time>2011-07-14T12:23:48Z</time>
      </trkpt>
      <trkpt lat="45.846" lon="-1.1604">
        <ele>4</ele>
        <time>2011-07-14T12:24:07Z</time>
      </trkpt>
      <trkpt lat="45.84602" lon="-1.16221">
        <ele>5</ele>
        <time>2011-07-14T12:24:28Z</time>
      </trkpt>
      <trkpt lat="45.84604" lon="-1.1634">
        <ele>4</ele>
        <time>2011-07-14T12:24:42Z</time>
      </trkpt>
      <trkpt lat="45.84591" lon="-1.16398">
        <ele>4</ele>
        <time>2011-07-14T12:24:49Z</time>
      </trkpt>
      <trkpt lat="45.84585" lon="-1.16557">
        <ele>2</ele>
        <time>2011-07-14T12:25:08Z</time>
      </trkpt>
      <trkpt lat="45.84601" lon="-1.16732">
        <ele>2</ele>
        <time>2011-07-14T12:25:29Z</time>
      </trkpt>
      <trkpt lat="45.8465" lon="-1.16894">
        <ele>1</ele>
        <time>2011-07-14T12:25:51Z</time>
      </trkpt>
      <trkpt lat="45.84718" lon="-1.1702">
        <time>2011-07-14T12:26:13Z</time>
      </trkpt>
      <trkpt lat="45.84792" lon="-1.17144">
        <time>2011-07-14T12:26:36Z</time>
      </trkpt>
      <trkpt lat="45.84863" lon="-1.17261">
        <time>2011-07-14T12:26:59Z</time>
      </trkpt>
      <trkpt lat="45.84883" lon="-1.17294">
        <time>2011-07-14T12:27:06Z</time>
      </trkpt>
      <trkpt lat="45.84935" lon="-1.17379">
        <time>2011-07-14T12:27:23Z</time>
      </trkpt>
      <trkpt lat="45.85026" lon="-1.17531">
        <time>2011-07-14T12:27:51Z</time>
      </trkpt>
      <trkpt lat="45.85104" lon="-1.1766">
        <time>2011-07-14T12:28:14Z</time>
      </trkpt>
      <trkpt lat="45.85193" lon="-1.17807">
        <time>2011-07-14T12:28:39Z</time>
      </trkpt>
      <trkpt lat="45.85277" lon="-1.17948">
        <time>2011-07-14T12:29:02Z</time>
      </trkpt>
      <trkpt lat="45.85366" lon="-1.18096">
        <time>2011-07-14T12:29:26Z</time>
      </trkpt>
      <trkpt lat="45.85451" lon="-1.18236">
        <time>2011-07-14T12:29:49Z</time>
      </trkpt>
      <trkpt lat="45.85518" lon="-1.18346">
        <time>2011-07-14T12:30:07Z</time>
      </trkpt>
      <trkpt lat="45.85575" lon="-1.18439">
        <time>2011-07-14T12:30:23Z</time>
      </trkpt>
      <trkpt lat="45.85669" lon="-1.18597">
        <time>2011-07-14T12:30:49Z</time>
      </trkpt>
      <trkpt lat="45.85769" lon="-1.18764">
        <time>2011-07-14T12:31:15Z</time>
      </trkpt>
      <trkpt lat="45.85852" lon="-1.189">
        <time>2011-07-14T12:31:35Z</time>
      </trkpt>
      <trkpt lat="45.85949" lon="-1.1906">
        <time>2011-07-14T12:31:57Z</time>
      </trkpt>
      <trkpt lat="45.86039" lon="-1.1921">
        <time>2011-07-14T12:32:17Z</time>
      </trkpt>
      <trkpt lat="45.8612" lon="-1.19344">
        <time>2011-07-14T12:32:36Z</time>
      </trkpt>
      <trkpt lat="45.8619" lon="-1.1946">
        <ele>1</ele>
        <time>2011-07-14T12:32:54Z</time>
      </trkpt>
      <trkpt lat="45.86276" lon="-1.19603">
        <ele>3</ele>
        <time>2011-07-14T12:33:15Z</time>
      </trkpt>
      <trkpt lat="45.86349" lon="-1.19716">
        <ele>3</ele>
        <time>2011-07-14T12:33:35Z</time>
      </trkpt>
      <trkpt lat="45.86419" lon="-1.19812">
        <ele>4</ele>
        <time>2011-07-14T12:33:52Z</time>
      </trkpt>
      <trkpt lat="45.86494" lon="-1.19939">
        <ele>3</ele>
        <time>2011-07-14T12:34:13Z</time>
      </trkpt>
      <trkpt lat="45.86563" lon="-1.20054">
        <ele>4</ele>
        <time>2011-07-14T12:34:31Z</time>
      </trkpt>
      <trkpt lat="45.86576" lon="-1.20065">
        <ele>4</ele>
        <time>2011-07-14T12:34:36Z</time>
      </trkpt>
      <trkpt lat="45.86576" lon="-1.20069">
        <ele>4</ele>
        <time>2011-07-14T12:34:43Z</time>
      </trkpt>
      <trkpt lat="45.86574" lon="-1.2007">
        <ele>4</ele>
        <time>2011-07-14T12:34:52Z</time>
      </trkpt>
      <trkpt lat="45.86547" lon="-1.20085">
        <ele>4</ele>
        <time>2011-07-14T12:35:05Z</time>
      </trkpt>
      <trkpt lat="45.86542" lon="-1.20091">
        <ele>4</ele>
        <time>2011-07-14T12:35:08Z</time>
      </trkpt>
      <trkpt lat="45.86543" lon="-1.20098">
        <ele>3</ele>
        <time>2011-07-14T12:35:20Z</time>
      </trkpt>
      <trkpt lat="45.86543" lon="-1.20099">
        <ele>3</ele>
        <time>2011-07-14T12:39:35Z</time>
      </trkpt>
      <trkpt lat="45.86569" lon="-1.2013">
        <ele>3</ele>
        <time>2011-07-14T12:39:48Z</time>
      </trkpt>
      <trkpt lat="45.86628" lon="-1.20218">
        <ele>3</ele>
        <time>2011-07-14T12:40:07Z</time>
      </trkpt>
      <trkpt lat="45.86687" lon="-1.2033">
        <ele>3</ele>
        <time>2011-07-14T12:40:26Z</time>
      </trkpt>
      <trkpt lat="45.86733" lon="-1.2043">
        <ele>3</ele>
        <time>2011-07-14T12:40:43Z</time>
      </trkpt>
      <trkpt lat="45.86785" lon="-1.20558">
        <ele>3</ele>
        <time>2011-07-14T12:41:03Z</time>
      </trkpt>
      <trkpt lat="45.86845" lon="-1.20738">
        <ele>2</ele>
        <time>2011-07-14T12:41:27Z</time>
      </trkpt>
      <trkpt lat="45.86879" lon="-1.20867">
        <ele>3</ele>
        <time>2011-07-14T12:41:44Z</time>
      </trkpt>
      <trkpt lat="45.8688" lon="-1.20896">
        <ele>3</ele>
        <time>2011-07-14T12:41:49Z</time>
      </trkpt>
      <trkpt lat="45.86877" lon="-1.20915">
        <ele>3</ele>
        <time>2011-07-14T12:41:54Z</time>
      </trkpt>
      <trkpt lat="45.86869" lon="-1.20924">
        <ele>3</ele>
        <time>2011-07-14T12:41:58Z</time>
      </trkpt>
      <trkpt lat="45.86862" lon="-1.20927">
        <ele>3</ele>
        <time>2011-07-14T12:42:00Z</time>
      </trkpt>
      <trkpt lat="45.868" lon="-1.20958">
        <ele>3</ele>
        <time>2011-07-14T12:42:14Z</time>
      </trkpt>
      <trkpt lat="45.86789" lon="-1.20966">
        <ele>2</ele>
        <time>2011-07-14T12:42:17Z</time>
      </trkpt>
      <trkpt lat="45.86788" lon="-1.20989">
        <ele>2</ele>
        <time>2011-07-14T12:42:22Z</time>
      </trkpt>
      <trkpt lat="45.86843" lon="-1.21092">
        <ele>4</ele>
        <time>2011-07-14T12:42:41Z</time>
      </trkpt>
      <trkpt lat="45.86936" lon="-1.21271">
        <ele>2</ele>
        <time>2011-07-14T12:43:09Z</time>
      </trkpt>
      <trkpt lat="45.86988" lon="-1.21402">
        <ele>2</ele>
        <time>2011-07-14T12:43:28Z</time>
      </trkpt>
      <trkpt lat="45.87035" lon="-1.21525">
        <ele>1</ele>
        <time>2011-07-14T12:43:46Z</time>
      </trkpt>
      <trkpt lat="45.87093" lon="-1.21672">
        <ele>3</ele>
        <time>2011-07-14T12:44:09Z</time>
      </trkpt>
      <trkpt lat="45.87101" lon="-1.21696">
        <ele>3</ele>
        <time>2011-07-14T12:44:13Z</time>
      </trkpt>
      <trkpt lat="45.8711" lon="-1.21765">
        <ele>4</ele>
        <time>2011-07-14T12:44:26Z</time>
      </trkpt>
      <trkpt lat="45.87109" lon="-1.2178">
        <ele>4</ele>
        <time>2011-07-14T12:44:32Z</time>
      </trkpt>
      <trkpt lat="45.87109" lon="-1.21795">
        <ele>4</ele>
        <time>2011-07-14T12:44:39Z</time>
      </trkpt>
      <trkpt lat="45.87077" lon="-1.21842">
        <ele>4</ele>
        <time>2011-07-14T12:44:54Z</time>
      </trkpt>
      <trkpt lat="45.87048" lon="-1.21876">
        <ele>3</ele>
        <time>2011-07-14T12:45:02Z</time>
      </trkpt>
      <trkpt lat="45.87032" lon="-1.21891">
        <ele>3</ele>
        <time>2011-07-14T12:45:06Z</time>
      </trkpt>
      <trkpt lat="45.86995" lon="-1.21915">
        <ele>3</ele>
        <time>2011-07-14T12:45:14Z</time>
      </trkpt>
      <trkpt lat="45.86978" lon="-1.2193">
        <ele>2</ele>
        <time>2011-07-14T12:45:18Z</time>
      </trkpt>
      <trkpt lat="45.86916" lon="-1.21982">
        <ele>2</ele>
        <time>2011-07-14T12:45:32Z</time>
      </trkpt>
      <trkpt lat="45.8689" lon="-1.21994">
        <ele>2</ele>
        <time>2011-07-14T12:45:37Z</time>
      </trkpt>
      <trkpt lat="45.86809" lon="-1.22017">
        <ele>2</ele>
        <time>2011-07-14T12:45:52Z</time>
      </trkpt>
      <trkpt lat="45.86759" lon="-1.22037">
        <ele>2</ele>
        <time>2011-07-14T12:46:05Z</time>
      </trkpt>
      <trkpt lat="45.86746" lon="-1.2204">
        <ele>2</ele>
        <time>2011-07-14T12:46:08Z</time>
      </trkpt>
      <trkpt lat="45.86731" lon="-1.22038">
        <ele>2</ele>
        <time>2011-07-14T12:46:12Z</time>
      </trkpt>
      <trkpt lat="45.86722" lon="-1.22035">
        <ele>2</ele>
        <time>2011-07-14T12:46:14Z</time>
      </trkpt>
      <trkpt lat="45.867" lon="-1.2204">
        <ele>2</ele>
        <time>2011-07-14T12:46:19Z</time>
      </trkpt>
      <trkpt lat="45.86621" lon="-1.22113">
        <ele>1</ele>
        <time>2011-07-14T12:46:37Z</time>
      </trkpt>
      <trkpt lat="45.86612" lon="-1.22121">
        <ele>1</ele>
        <time>2011-07-14T12:46:39Z</time>
      </trkpt>
      <trkpt lat="45.866" lon="-1.22164">
        <ele>1</ele>
        <time>2011-07-14T12:46:45Z</time>
      </trkpt>
      <trkpt lat="45.86606" lon="-1.2222">
        <ele>1</ele>
        <time>2011-07-14T12:46:52Z</time>
      </trkpt>
      <trkpt lat="45.86581" lon="-1.2233">
        <ele>3</ele>
        <time>2011-07-14T12:47:07Z</time>
      </trkpt>
      <trkpt lat="45.86574" lon="-1.22355">
        <ele>3</ele>
        <time>2011-07-14T12:47:11Z</time>
      </trkpt>
      <trkpt lat="45.86551" lon="-1.2242">
        <ele>2</ele>
        <time>2011-07-14T12:47:24Z</time>
      </trkpt>
      <trkpt lat="45.86542" lon="-1.22431">
        <ele>2</ele>
        <time>2011-07-14T12:47:28Z</time>
      </trkpt>
      <trkpt lat="45.86536" lon="-1.22443">
        <ele>2</ele>
        <time>2011-07-14T12:47:31Z</time>
      </trkpt>
      <trkpt lat="45.8651" lon="-1.22475">
        <ele>2</ele>
        <time>2011-07-14T12:47:39Z</time>
      </trkpt>
      <trkpt lat="45.86497" lon="-1.225">
        <ele>2</ele>
        <time>2011-07-14T12:47:44Z</time>
      </trkpt>
      <trkpt lat="45.86472" lon="-1.22588">
        <ele>2</ele>
        <time>2011-07-14T12:48:01Z</time>
      </trkpt>
      <trkpt lat="45.86468" lon="-1.22601">
        <ele>2</ele>
        <time>2011-07-14T12:48:03Z</time>
      </trkpt>
      <trkpt lat="45.86446" lon="-1.2267">
        <ele>3</ele>
        <time>2011-07-14T12:48:13Z</time>
      </trkpt>
      <trkpt lat="45.8644" lon="-1.22683">
        <ele>3</ele>
        <time>2011-07-14T12:48:15Z</time>
      </trkpt>
      <trkpt lat="45.86396" lon="-1.22744">
        <ele>2</ele>
        <time>2011-07-14T12:48:30Z</time>
      </trkpt>
      <trkpt lat="45.8638" lon="-1.22774">
        <ele>2</ele>
        <time>2011-07-14T12:48:42Z</time>
      </trkpt>
      <trkpt lat="45.86373" lon="-1.22786">
        <ele>2</ele>
        <time>2011-07-14T12:48:45Z</time>
      </trkpt>
      <trkpt lat="45.86346" lon="-1.22836">
        <ele>2</ele>
        <time>2011-07-14T12:48:59Z</time>
      </trkpt>
      <trkpt lat="45.86344" lon="-1.22841">
        <ele>2</ele>
        <time>2011-07-14T12:49:01Z</time>
      </trkpt>
      <trkpt lat="45.86349" lon="-1.22852">
        <ele>3</ele>
        <time>2011-07-14T12:49:05Z</time>
      </trkpt>
      <trkpt lat="45.86351" lon="-1.22879">
        <ele>3</ele>
        <time>2011-07-14T12:49:09Z</time>
      </trkpt>
      <trkpt lat="45.86352" lon="-1.22947">
        <ele>3</ele>
        <time>2011-07-14T12:49:17Z</time>
      </trkpt>
      <trkpt lat="45.86314" lon="-1.23069">
        <ele>3</ele>
        <time>2011-07-14T12:49:32Z</time>
      </trkpt>
      <trkpt lat="45.86307" lon="-1.23084">
        <ele>2</ele>
        <time>2011-07-14T12:49:34Z</time>
      </trkpt>
      <trkpt lat="45.8629" lon="-1.23106">
        <ele>3</ele>
        <time>2011-07-14T12:49:38Z</time>
      </trkpt>
      <trkpt lat="45.8628" lon="-1.23113">
        <ele>3</ele>
        <time>2011-07-14T12:49:40Z</time>
      </trkpt>
      <trkpt lat="45.86252" lon="-1.23121">
        <ele>3</ele>
        <time>2011-07-14T12:49:46Z</time>
      </trkpt>
      <trkpt lat="45.86257" lon="-1.23112">
        <ele>3</ele>
        <time>2011-07-14T12:49:53Z</time>
      </trkpt>
      <trkpt lat="45.86285" lon="-1.23105">
        <ele>3</ele>
        <time>2011-07-14T12:50:06Z</time>
      </trkpt>
      <trkpt lat="45.86285" lon="-1.23105">
        <ele>3</ele>
        <time>2011-07-14T12:50:11Z</time>
      </trkpt>
      <trkpt lat="45.86284" lon="-1.2311">
        <ele>3</ele>
        <time>2011-07-14T12:50:15Z</time>
      </trkpt>
      <trkpt lat="45.86246" lon="-1.23118">
        <ele>3</ele>
        <time>2011-07-14T12:50:29Z</time>
      </trkpt>
      <trkpt lat="45.86234" lon="-1.2312">
        <ele>3</ele>
        <time>2011-07-14T12:50:32Z</time>
      </trkpt>
      <trkpt lat="45.86212" lon="-1.23116">
        <ele>3</ele>
        <time>2011-07-14T12:50:37Z</time>
      </trkpt>
      <trkpt lat="45.86188" lon="-1.23101">
        <ele>4</ele>
        <time>2011-07-14T12:50:42Z</time>
      </trkpt>
      <trkpt lat="45.86151" lon="-1.23039">
        <ele>4</ele>
        <time>2011-07-14T12:50:53Z</time>
      </trkpt>
      <trkpt lat="45.86133" lon="-1.23035">
        <ele>4</ele>
        <time>2011-07-14T12:50:57Z</time>
      </trkpt>
      <trkpt lat="45.86085" lon="-1.23065">
        <ele>4</ele>
        <time>2011-07-14T12:51:07Z</time>
      </trkpt>
      <trkpt lat="45.86084" lon="-1.23087">
        <ele>5</ele>
        <time>2011-07-14T12:51:13Z</time>
      </trkpt>
      <trkpt lat="45.86144" lon="-1.23162">
        <ele>4</ele>
        <time>2011-07-14T12:51:30Z</time>
      </trkpt>
      <trkpt lat="45.86176" lon="-1.232">
        <ele>4</ele>
        <time>2011-07-14T12:51:37Z</time>
      </trkpt>
      <trkpt lat="45.86224" lon="-1.23315">
        <ele>4</ele>
        <time>2011-07-14T12:51:53Z</time>
      </trkpt>
      <trkpt lat="45.86229" lon="-1.2333">
        <ele>4</ele>
        <time>2011-07-14T12:51:55Z</time>
      </trkpt>
      <trkpt lat="45.86245" lon="-1.23375">
        <ele>4</ele>
        <time>2011-07-14T12:52:01Z</time>
      </trkpt>
      <trkpt lat="45.86259" lon="-1.23416">
        <ele>4</ele>
        <time>2011-07-14T12:52:07Z</time>
      </trkpt>
      <trkpt lat="45.8627" lon="-1.23439">
        <ele>3</ele>
        <time>2011-07-14T12:52:11Z</time>
      </trkpt>
      <trkpt lat="45.86282" lon="-1.23454">
        <ele>3</ele>
        <time>2011-07-14T12:52:15Z</time>
      </trkpt>
      <trkpt lat="45.86277" lon="-1.23471">
        <ele>3</ele>
        <time>2011-07-14T12:52:21Z</time>
      </trkpt>
      <trkpt lat="45.86208" lon="-1.23506">
        <ele>4</ele>
        <time>2011-07-14T12:52:38Z</time>
      </trkpt>
      <trkpt lat="45.86203" lon="-1.23509">
        <ele>4</ele>
        <time>2011-07-14T12:52:39Z</time>
      </trkpt>
      <trkpt lat="45.86185" lon="-1.23533">
        <ele>4</ele>
        <time>2011-07-14T12:52:44Z</time>
      </trkpt>
      <trkpt lat="45.8618" lon="-1.23546">
        <ele>5</ele>
        <time>2011-07-14T12:52:46Z</time>
      </trkpt>
      <trkpt lat="45.86172" lon="-1.23592">
        <ele>6</ele>
        <time>2011-07-14T12:52:52Z</time>
      </trkpt>
      <trkpt lat="45.86199" lon="-1.23732">
        <ele>5</ele>
        <time>2011-07-14T12:53:10Z</time>
      </trkpt>
      <trkpt lat="45.86223" lon="-1.23796">
        <ele>5</ele>
        <time>2011-07-14T12:53:20Z</time>
      </trkpt>
      <trkpt lat="45.86215" lon="-1.23813">
        <ele>5</ele>
        <time>2011-07-14T12:53:25Z</time>
      </trkpt>
      <trkpt lat="45.86203" lon="-1.23816">
        <ele>5</ele>
        <time>2011-07-14T12:53:28Z</time>
      </trkpt>
      <trkpt lat="45.86125" lon="-1.23903">
        <ele>8</ele>
        <time>2011-07-14T12:53:47Z</time>
      </trkpt>
      <trkpt lat="45.86061" lon="-1.23972">
        <ele>9</ele>
        <time>2011-07-14T12:54:02Z</time>
      </trkpt>
      <trkpt lat="45.85982" lon="-1.24063">
        <ele>10</ele>
        <time>2011-07-14T12:54:21Z</time>
      </trkpt>
      <trkpt lat="45.85957" lon="-1.2409">
        <ele>11</ele>
        <time>2011-07-14T12:54:27Z</time>
      </trkpt>
      <trkpt lat="45.8595" lon="-1.241">
        <ele>11</ele>
        <time>2011-07-14T12:54:29Z</time>
      </trkpt>
      <trkpt lat="45.8593" lon="-1.24119">
        <ele>11</ele>
        <time>2011-07-14T12:54:35Z</time>
      </trkpt>
      <trkpt lat="45.85893" lon="-1.24164">
        <ele>13</ele>
        <time>2011-07-14T12:54:49Z</time>
      </trkpt>
      <trkpt lat="45.85893" lon="-1.24163">
        <ele>13</ele>
        <time>2011-07-14T12:55:01Z</time>
      </trkpt>
      <trkpt lat="45.85899" lon="-1.24193">
        <ele>13</ele>
        <time>2011-07-14T12:55:09Z</time>
      </trkpt>
      <trkpt lat="45.85893" lon="-1.24245">
        <ele>13</ele>
        <time>2011-07-14T12:55:18Z</time>
      </trkpt>
      <trkpt lat="45.85895" lon="-1.24291">
        <ele>13</ele>
        <time>2011-07-14T12:55:26Z</time>
      </trkpt>
      <trkpt lat="45.85856" lon="-1.24316">
        <ele>12</ele>
        <time>2011-07-14T12:55:34Z</time>
      </trkpt>
      <trkpt lat="45.85825" lon="-1.24316">
        <ele>11</ele>
        <time>2011-07-14T12:55:39Z</time>
      </trkpt>
      <trkpt lat="45.85804" lon="-1.24321">
        <ele>11</ele>
        <time>2011-07-14T12:55:42Z</time>
      </trkpt>
      <trkpt lat="45.85784" lon="-1.24336">
        <ele>10</ele>
        <time>2011-07-14T12:55:46Z</time>
      </trkpt>
      <trkpt lat="45.85741" lon="-1.24386">
        <ele>9</ele>
        <time>2011-07-14T12:55:55Z</time>
      </trkpt>
      <trkpt lat="45.85729" lon="-1.24409">
        <ele>9</ele>
        <time>2011-07-14T12:55:59Z</time>
      </trkpt>
      <trkpt lat="45.85711" lon="-1.24429">
        <ele>9</ele>
        <time>2011-07-14T12:56:03Z</time>
      </trkpt>
      <trkpt lat="45.857" lon="-1.24438">
        <ele>9</ele>
        <time>2011-07-14T12:56:05Z</time>
      </trkpt>
      <trkpt lat="45.85657" lon="-1.24496">
        <ele>9</ele>
        <time>2011-07-14T12:56:15Z</time>
      </trkpt>
      <trkpt lat="45.85646" lon="-1.24521">
        <ele>8</ele>
        <time>2011-07-14T12:56:19Z</time>
      </trkpt>
      <trkpt lat="45.85615" lon="-1.24547">
        <ele>8</ele>
        <time>2011-07-14T12:56:26Z</time>
      </trkpt>
      <trkpt lat="45.85593" lon="-1.24547">
        <ele>8</ele>
        <time>2011-07-14T12:56:30Z</time>
      </trkpt>
      <trkpt lat="45.85556" lon="-1.24563">
        <ele>6</ele>
        <time>2011-07-14T12:56:36Z</time>
      </trkpt>
      <trkpt lat="45.85487" lon="-1.24643">
        <ele>5</ele>
        <time>2011-07-14T12:56:51Z</time>
      </trkpt>
      <trkpt lat="45.85478" lon="-1.2465">
        <ele>5</ele>
        <time>2011-07-14T12:56:53Z</time>
      </trkpt>
      <trkpt lat="45.85457" lon="-1.24675">
        <ele>5</ele>
        <time>2011-07-14T12:57:00Z</time>
      </trkpt>
      <trkpt lat="45.85436" lon="-1.24709">
        <ele>5</ele>
        <time>2011-07-14T12:57:07Z</time>
      </trkpt>
      <trkpt lat="45.85424" lon="-1.24729">
        <ele>5</ele>
        <time>2011-07-14T12:57:11Z</time>
      </trkpt>
      <trkpt lat="45.85357" lon="-1.24798">
        <ele>4</ele>
        <time>2011-07-14T12:57:26Z</time>
      </trkpt>
      <trkpt lat="45.85293" lon="-1.24871">
        <ele>4</ele>
        <time>2011-07-14T12:57:42Z</time>
      </trkpt>
      <trkpt lat="45.85229" lon="-1.2496">
        <ele>4</ele>
        <time>2011-07-14T12:57:58Z</time>
      </trkpt>
      <trkpt lat="45.85179" lon="-1.25035">
        <ele>5</ele>
        <time>2011-07-14T12:58:11Z</time>
      </trkpt>
      <trkpt lat="45.85162" lon="-1.25063">
        <ele>5</ele>
        <time>2011-07-14T12:58:16Z</time>
      </trkpt>
      <trkpt lat="45.85125" lon="-1.25092">
        <ele>5</ele>
        <time>2011-07-14T12:58:30Z</time>
      </trkpt>
      <trkpt lat="45.85117" lon="-1.25101">
        <ele>5</ele>
        <time>2011-07-14T12:58:41Z</time>
      </trkpt>
      <trkpt lat="45.85115" lon="-1.25107">
        <ele>5</ele>
        <time>2011-07-14T12:58:47Z</time>
      </trkpt>
      <trkpt lat="45.85113" lon="-1.25114">
        <ele>5</ele>
        <time>2011-07-14T12:59:03Z</time>
      </trkpt>
      <trkpt lat="45.85116" lon="-1.25124">
        <ele>5</ele>
        <time>2011-07-14T12:59:23Z</time>
      </trkpt>
    </trkseg>
  </trk>
</gpx>